Time,TemperatureF,DewpointF,PressureIn,WindDirection,WindDirectionDegrees,WindSpeedMPH,WindSpeedGustMPH,Humidity,HourlyPrecipIn,Conditions,Clouds,dailyrainin,SolarRadiationWatts/m^2,SoftwareType,DateUTC
2013-04-02 00:01:00,46.0,40.0,-100.00,West,262,9.0,22.0,79,0.00,,,0.00,0.000000,,2013-04-02 07:01:00,
2013-04-02 00:32:00,46.0,41.0,-100.00,West,260,9.0,23.0,81,0.00,,,0.00,0.000000,,2013-04-02 07:32:00,
2013-04-02 00:43:00,46.0,41.0,-100.00,West,260,9.0,23.0,81,0.00,,,0.00,0.000000,,2013-04-02 07:43:00,
2013-04-02 00:52:00,46.0,41.0,-100.00,West,260,9.0,23.0,81,0.00,,,0.00,0.000000,,2013-04-02 07:52:00,
2013-04-02 01:02:00,46.0,41.0,-100.00,West,260,9.0,23.0,81,0.00,,,0.00,0.000000,,2013-04-02 08:02:00,
2013-04-02 01:32:00,48.0,43.0,-100.00,West,260,8.0,27.0,83,0.00,,,0.00,0.000000,,2013-04-02 08:32:00,
2013-04-02 01:42:00,48.0,43.0,-100.00,West,260,8.0,27.0,83,0.00,,,0.00,0.000000,,2013-04-02 08:42:00,
2013-04-02 01:52:00,48.0,43.0,-100.00,West,260,8.0,27.0,83,0.00,,,0.00,0.000000,,2013-04-02 08:52:00,
2013-04-02 02:01:00,48.0,43.0,-100.00,West,260,8.0,27.0,83,0.00,,,0.00,0.000000,,2013-04-02 09:01:00,
2013-04-02 02:03:00,48.0,43.0,-100.00,WNW,282,9.0,24.0,82,0.00,,,0.00,0.000000,,2013-04-02 09:03:00,
2013-04-02 02:33:00,48.0,43.0,-100.00,WNW,282,9.0,24.0,82,0.00,,,0.00,0.000000,,2013-04-02 09:33:00,
2013-04-02 02:43:00,48.0,43.0,-100.00,WNW,282,9.0,24.0,82,0.00,,,0.00,0.000000,,2013-04-02 09:43:00,
2013-04-02 02:52:00,48.0,43.0,-100.00,WNW,282,9.0,24.0,82,0.00,,,0.00,0.000000,,2013-04-02 09:52:00,
2013-04-02 03:24:00,46.0,41.0,-100.00,NE,54,7.0,27.0,84,0.00,,,0.00,0.000000,,2013-04-02 10:24:00,
2013-04-02 03:33:00,46.0,41.0,-100.00,NE,54,7.0,27.0,84,0.00,,,0.00,0.000000,,2013-04-02 10:33:00,
2013-04-02 03:42:00,46.0,41.0,-100.00,NE,54,7.0,27.0,84,0.00,,,0.00,0.000000,,2013-04-02 10:42:00,
2013-04-02 03:52:00,46.0,41.0,-100.00,NE,54,7.0,27.0,84,0.00,,,0.00,0.000000,,2013-04-02 10:52:00,
2013-04-02 04:02:00,46.0,41.0,-100.00,NE,54,7.0,27.0,84,0.00,,,0.00,0.000000,,2013-04-02 11:02:00,
2013-04-02 04:33:00,47.0,43.0,-100.00,West,271,7.0,23.0,87,0.00,,,0.00,0.000000,,2013-04-02 11:33:00,
2013-04-02 04:43:00,47.0,43.0,-100.00,West,271,7.0,23.0,87,0.00,,,0.00,0.000000,,2013-04-02 11:43:00,
2013-04-02 04:52:00,47.0,43.0,-100.00,West,271,7.0,23.0,87,0.00,,,0.00,0.000000,,2013-04-02 11:52:00,
2013-04-02 05:02:00,47.0,43.0,-100.00,West,271,7.0,23.0,87,0.00,,,0.00,0.000000,,2013-04-02 12:02:00,
2013-04-02 05:32:00,46.0,42.0,-100.00,West,263,10.0,20.0,87,0.00,,,0.00,0.000000,,2013-04-02 12:32:00,
2013-04-02 05:42:00,46.0,42.0,-100.00,West,263,10.0,20.0,87,0.00,,,0.00,0.000000,,2013-04-02 12:42:00,
2013-04-02 05:52:00,46.0,42.0,-100.00,West,263,10.0,20.0,87,0.00,,,0.00,0.000000,,2013-04-02 12:52:00,
2013-04-02 06:01:00,46.0,42.0,-100.00,West,263,10.0,20.0,87,0.00,,,0.00,0.000000,,2013-04-02 13:01:00,
2013-04-02 06:33:00,48.0,43.0,-100.00,NE,51,2.0,23.0,84,0.00,,,0.00,0.000000,,2013-04-02 13:33:00,
2013-04-02 06:42:00,48.0,43.0,-100.00,NE,51,2.0,23.0,84,0.00,,,0.00,0.000000,,2013-04-02 13:42:00,
2013-04-02 06:52:00,48.0,43.0,-100.00,NE,51,2.0,23.0,84,0.00,,,0.00,0.000000,,2013-04-02 13:52:00,
2013-04-02 07:02:00,48.0,43.0,-100.00,NE,51,2.0,23.0,84,0.00,,,0.00,0.000000,,2013-04-02 14:02:00,
2013-04-02 07:33:00,47.0,42.0,-100.00,NNE,18,8.0,18.0,82,0.00,,,0.00,0.000000,,2013-04-02 14:33:00,
2013-04-02 07:42:00,47.0,42.0,-100.00,NNE,18,8.0,18.0,82,0.00,,,0.00,0.000000,,2013-04-02 14:42:00,
2013-04-02 07:52:00,47.0,42.0,-100.00,NNE,18,8.0,18.0,82,0.00,,,0.00,0.000000,,2013-04-02 14:52:00,
2013-04-02 08:02:00,47.0,42.0,-100.00,NNE,18,8.0,18.0,82,0.00,,,0.00,0.000000,,2013-04-02 15:02:00,
2013-04-02 08:03:00,54.0,42.0,-100.00,NNE,22,0.0,18.0,63,0.00,,,0.00,125.000000,,2013-04-02 15:03:00,
2013-04-02 08:33:00,54.0,42.0,-100.00,NNE,22,0.0,18.0,63,0.00,,,0.00,125.000000,,2013-04-02 15:33:00,
2013-04-02 08:43:00,54.0,42.0,-100.00,NNE,22,0.0,18.0,63,0.00,,,0.00,125.000000,,2013-04-02 15:43:00,
2013-04-02 08:56:00,54.0,42.0,-100.00,NNE,22,0.0,18.0,63,0.00,,,0.00,125.000000,,2013-04-02 15:56:00,
2013-04-02 09:39:00,57.0,43.0,-100.00,South,171,4.0,11.0,60,0.00,,,-99.99,324.000000,,2013-04-02 16:39:00,
2013-04-02 09:44:00,57.0,43.0,-100.00,South,171,4.0,11.0,60,0.00,,,-99.99,324.000000,,2013-04-02 16:44:00,
2013-04-02 09:53:00,57.0,43.0,-100.00,South,171,4.0,11.0,60,0.00,,,-99.99,324.000000,,2013-04-02 16:53:00,
2013-04-02 10:02:00,57.0,43.0,-100.00,South,171,4.0,11.0,60,0.00,,,-99.99,324.000000,,2013-04-02 17:02:00,
2013-04-02 10:35:00,61.0,44.0,-100.00,South,178,4.0,9.0,53,0.00,,,0.00,507.000000,,2013-04-02 17:35:00,
2013-04-02 10:43:00,61.0,44.0,-100.00,South,178,4.0,9.0,53,0.00,,,0.00,507.000000,,2013-04-02 17:43:00,
2013-04-02 10:55:00,61.0,44.0,-100.00,South,178,4.0,9.0,53,0.00,,,0.00,507.000000,,2013-04-02 17:55:00,
2013-04-02 11:02:00,61.0,44.0,-100.00,South,178,4.0,9.0,53,0.00,,,0.00,507.000000,,2013-04-02 18:02:00,
2013-04-02 11:35:00,64.0,43.0,-100.00,South,174,3.0,9.0,47,0.00,,,0.00,637.000000,,2013-04-02 18:35:00,
2013-04-02 11:43:00,64.0,43.0,-100.00,South,174,3.0,9.0,47,0.00,,,0.00,637.000000,,2013-04-02 18:43:00,
2013-04-02 11:55:00,64.0,43.0,-100.00,South,174,3.0,9.0,47,0.00,,,0.00,637.000000,,2013-04-02 18:55:00,
2013-04-02 12:02:00,64.0,43.0,-100.00,South,174,3.0,9.0,47,0.00,,,0.00,637.000000,,2013-04-02 19:02:00,
2013-04-02 12:34:00,66.0,46.0,-100.00,SW,219,6.0,11.0,49,0.00,,,0.00,705.000000,,2013-04-02 19:34:00,
2013-04-02 12:45:00,66.0,46.0,-100.00,SW,219,6.0,11.0,49,0.00,,,0.00,705.000000,,2013-04-02 19:45:00,
2013-04-02 12:54:00,66.0,46.0,-100.00,SW,219,6.0,11.0,49,0.00,,,0.00,705.000000,,2013-04-02 19:54:00,
2013-04-02 13:02:00,66.0,46.0,-100.00,SW,219,6.0,11.0,49,0.00,,,0.00,705.000000,,2013-04-02 20:02:00,
2013-04-02 13:34:00,66.0,44.0,-100.00,SSW,208,5.0,14.0,45,0.00,,,0.00,707.000000,,2013-04-02 20:34:00,
2013-04-02 13:44:00,66.0,44.0,-100.00,SSW,208,5.0,14.0,45,0.00,,,0.00,707.000000,,2013-04-02 20:44:00,
2013-04-02 13:54:00,66.0,44.0,-100.00,SSW,208,5.0,14.0,45,0.00,,,0.00,707.000000,,2013-04-02 20:54:00,
2013-04-02 14:02:00,66.0,44.0,-100.00,SSW,208,5.0,14.0,45,0.00,,,0.00,707.000000,,2013-04-02 21:02:00,
2013-04-02 15:33:00,71.0,49.0,-100.00,SW,227,5.0,15.0,45,-99.99,,,0.00,528.000000,,2013-04-02 22:33:00,
2013-04-02 17:02:00,70.0,48.0,-100.00,SSW,205,6.0,15.0,46,0.00,,,0.00,344.000000,,2013-04-03 00:02:00,
2013-04-02 17:34:00,69.0,46.0,-100.00,West,263,7.0,13.0,44,0.00,,,0.00,141.000000,,2013-04-03 00:34:00,
2013-04-02 17:47:00,69.0,46.0,-100.00,West,263,7.0,13.0,44,0.00,,,0.00,141.000000,,2013-04-03 00:47:00,
2013-04-02 17:54:00,69.0,46.0,-100.00,West,263,7.0,13.0,44,0.00,,,0.00,141.000000,,2013-04-03 00:54:00,
2013-04-02 18:02:00,69.0,46.0,-100.00,West,263,7.0,13.0,44,0.00,,,0.00,141.000000,,2013-04-03 01:02:00,
2013-04-02 18:33:00,65.0,47.0,-100.00,West,260,8.0,16.0,52,0.00,,,0.00,0.000000,,2013-04-03 01:33:00,
2013-04-02 18:42:00,65.0,47.0,-100.00,West,260,8.0,16.0,52,0.00,,,0.00,0.000000,,2013-04-03 01:42:00,
2013-04-02 18:53:00,65.0,47.0,-100.00,West,260,8.0,16.0,52,0.00,,,0.00,0.000000,,2013-04-03 01:53:00,
2013-04-02 19:02:00,65.0,47.0,-100.00,West,260,8.0,16.0,52,0.00,,,0.00,0.000000,,2013-04-03 02:02:00,
2013-04-02 19:03:00,59.0,47.0,-100.00,West,264,6.0,15.0,64,0.00,,,0.00,0.000000,,2013-04-03 02:03:00,
2013-04-02 19:34:00,59.0,47.0,-100.00,West,264,6.0,15.0,64,0.00,,,0.00,0.000000,,2013-04-03 02:34:00,
2013-04-02 19:44:00,59.0,47.0,-100.00,West,264,6.0,15.0,64,0.00,,,0.00,0.000000,,2013-04-03 02:44:00,
2013-04-02 19:53:00,59.0,47.0,-100.00,West,264,6.0,15.0,64,0.00,,,0.00,0.000000,,2013-04-03 02:53:00,
2013-04-02 20:23:00,56.0,47.0,-100.00,WNW,294,3.0,13.0,73,0.00,,,0.00,0.000000,,2013-04-03 03:23:00,
2013-04-02 20:38:00,56.0,47.0,-100.00,WNW,294,3.0,13.0,73,0.00,,,0.00,0.000000,,2013-04-03 03:38:00,
2013-04-02 20:44:00,56.0,47.0,-100.00,WNW,294,3.0,13.0,73,0.00,,,0.00,0.000000,,2013-04-03 03:44:00,
2013-04-02 20:54:00,56.0,47.0,-100.00,WNW,294,3.0,13.0,73,0.00,,,0.00,0.000000,,2013-04-03 03:54:00,
2013-04-02 21:23:00,51.0,44.0,-100.00,NW,324,0.0,12.0,77,0.00,,,0.00,0.000000,,2013-04-03 04:23:00,
2013-04-02 21:33:00,51.0,44.0,-100.00,NW,324,0.0,12.0,77,0.00,,,0.00,0.000000,,2013-04-03 04:33:00,
2013-04-02 21:43:00,51.0,44.0,-100.00,NW,324,0.0,12.0,77,0.00,,,0.00,0.000000,,2013-04-03 04:43:00,
2013-04-02 21:53:00,51.0,44.0,-100.00,NW,324,0.0,12.0,77,0.00,,,0.00,0.000000,,2013-04-03 04:53:00,
2013-04-02 22:02:00,51.0,44.0,-100.00,NW,324,0.0,12.0,77,0.00,,,0.00,0.000000,,2013-04-03 05:02:00,
2013-04-02 22:32:00,46.0,43.0,-100.00,NNE,17,0.0,5.0,88,0.00,,,0.00,0.000000,,2013-04-03 05:32:00,
2013-04-02 22:42:00,46.0,43.0,-100.00,NNE,17,0.0,5.0,88,0.00,,,0.00,0.000000,,2013-04-03 05:42:00,
2013-04-02 22:52:00,46.0,43.0,-100.00,NNE,17,0.0,5.0,88,0.00,,,0.00,0.000000,,2013-04-03 05:52:00,
2013-04-02 23:02:00,46.0,43.0,-100.00,NNE,17,0.0,5.0,88,0.00,,,0.00,0.000000,,2013-04-03 06:02:00,
2013-04-02 23:22:00,41.0,39.0,-100.00,North,4,1.0,5.0,91,0.00,,,0.00,0.000000,,2013-04-03 06:22:00,
2013-04-02 23:32:00,41.0,39.0,-100.00,North,4,1.0,5.0,91,0.00,,,0.00,0.000000,,2013-04-03 06:32:00,
2013-04-02 23:42:00,41.0,39.0,-100.00,North,4,1.0,5.0,91,0.00,,,0.00,0.000000,,2013-04-03 06:42:00,
2013-04-02 23:52:00,41.0,39.0,-100.00,North,4,1.0,5.0,91,0.00,,,0.00,0.000000,,2013-04-03 06:52:00,